ENGMLGKO

Guest
Details From ENGM - Oslo Gardermoen
To LGKO - Kos
Flight Number -
Tags Generated
Created
Modified
Stats Distance 1,533 nm / 2,840 km
Max Altitude 0 ft / 0 m
Waypoints 9
Social Downloads 2
Likes 0
Share VATSIM

Download

Looking for another format? Having issues loading an existing format? Contact us
Advertisement - Login to hide

Notes

Generated

Route

ENGM GELMA MAPEX BALOS GINOS INBOL LIO KOS09 LGKO

ID Type Via Altitude Latitude Longitude Leg Dist Tot Dist Heading (true) Name
O ENGM APT - 0 ft / 0 m 60.17576˚ 11.10778˚ - 0 nm - -
GELMA FIX - 0 ft / 0 m 57.03961˚ 14.20367˚ 211 nm 211 nm 151° / 154° -
MAPEX FIX - 0 ft / 0 m 53.70611˚ 17.00361˚ 221 nm 433 nm 153° / 156° -
BALOS FIX - 0 ft / 0 m 50.27556˚ 19.65833˚ 228 nm 661 nm 153° / 156° -
GINOS FIX - 0 ft / 0 m 46.92833˚ 21.77522˚ 217 nm 879 nm 157° / 158° -
INBOL FIX - 0 ft / 0 m 43.47083˚ 23.80361˚ 224 nm 1104 nm 157° / 158° -
LIO NDB - 0 ft / 0 m 39.92340˚ 25.24919˚ 222 nm 1326 nm 163° / 164° LIMNOS NDB
KOS09 FIX - 0 ft / 0 m 36.92393˚ 27.00488˚ 198 nm 1525 nm 155° / 156° -
O LGKO APT - 0 ft / 0 m 36.80364˚ 27.08364˚ 8 nm 1533 nm 152° / 152° -

Altitude Profile

Advertisement - Login to hide

Weather


0- 5 10 15 20 25 30 35+ Temperature / ° C

Clouds and Precipitation
Forecast for 2017-12-13 06:00 UTC. Updated an hour ago

Ground ~20,000 ft ~40,000 ft Winds

ENGM

Details ICAO ENGM (OSL)
Name Oslo Gardermoen
Region Norway
Timezone Europe/Oslo (UTC+1.0)
Stats Elevation 681 ft / 208 m (AMSL)
Location 60.194507° 11.098998°
Runways 2
Magnetic Variation 3.384° E

METAR

ENGM 130350Z 36002KT 9999 BKN004 M14/M16 Q0994

Decode

TAF

TAF AMD ENGM 130309Z 1303/1324 VRB05KT CAVOK PROB30 1303/1308 0800 FZFG VV001 BECMG 1310/1312 3000 -SN BKN008 TEMPO 1311/1316 1200 SN VV004 PROB40 1315/1324 0500 FZFG VV001

Decode

Departure Runways

ID Width Length Bearing (true) Bearing (mag) Surface Threshold Offset Overrun Length
01L 148 ft / 45 m 12,144 ft / 3,702 m 15.89° 12.51° Concrete 0 ft / 0 m 499 ft / 152 m
01R 148 ft / 45 m 10,014 ft / 3,052 m 15.89° 12.51° Concrete 0 ft / 0 m 499 ft / 152 m
19L 148 ft / 45 m 10,014 ft / 3,052 m 195.91° 192.53° Concrete 0 ft / 0 m 466 ft / 142 m
19R 148 ft / 45 m 12,144 ft / 3,702 m 195.91° 192.53° Concrete 0 ft / 0 m 482 ft / 147 m

LGKO

Details ICAO LGKO (KGS)
Name KOS
Region Greece
Timezone Europe/Athens (UTC+2.0)
Stats Elevation 412 ft / 126 m (AMSL)
Location 36.794403° 27.090764°
Runways 1
Magnetic Variation 4.723° E

METAR

LGKO 130350Z 34004KT 9999 FEW018 13/11 Q1021

Decode

TAF

TAF LGKO 122300Z 1300/1324 29010KT 9999 FEW015 SCT050 PROB30 1300/1306 3000 BR SCT010 BKN020

Decode

Destination Runways

ID Width Length Bearing (true) Bearing (mag) Surface Threshold Offset Overrun Length
14 148 ft / 45 m 7,923 ft / 2,415 m 148.29° 143.57° Asphalt 0 ft / 0 m 240 ft / 73 m
32 148 ft / 45 m 7,923 ft / 2,415 m 328.30° 323.58° Asphalt 0 ft / 0 m 205 ft / 62 m

Popular Alternatives